createdAt,value
2024-03-13T00:02:51.015Z,13.28
2024-03-13T00:06:52.660Z,13.45
2024-03-13T00:10:54.419Z,13.44
2024-03-13T00:14:57.538Z,13.48
2024-03-13T00:18:59.508Z,13.10
2024-03-13T00:23:02.732Z,13.03
2024-03-13T00:27:04.779Z,13.27
2024-03-13T00:31:09.849Z,13.01
2024-03-13T00:35:14.993Z,12.98
2024-03-13T00:39:17.129Z,13.26
2024-03-13T00:43:19.443Z,13.27
2024-03-13T00:47:23.933Z,13.02
2024-03-13T00:51:25.533Z,12.87
2024-03-13T00:55:28.591Z,12.88
2024-03-13T00:59:31.237Z,12.79
2024-03-13T01:03:32.865Z,12.95
2024-03-13T01:07:36.023Z,12.78
2024-03-13T01:11:37.887Z,12.75
2024-03-13T01:15:39.537Z,12.80
2024-03-13T01:19:41.056Z,13.01
2024-03-13T01:23:42.915Z,13.01
2024-03-13T01:27:44.583Z,12.99
2024-03-13T01:31:46.127Z,12.61
2024-03-13T01:35:48.020Z,12.95
2024-03-13T01:39:50.240Z,12.79
2024-03-13T01:44:16.807Z,12.83
2024-03-13T01:48:37.247Z,12.87
2024-03-13T01:52:57.384Z,12.78
2024-03-13T01:57:13.793Z,12.38
2024-03-13T02:01:33.736Z,12.78
2024-03-13T02:05:39.021Z,12.56
2024-03-13T02:09:40.583Z,12.39
2024-03-13T02:13:42.146Z,12.70
2024-03-13T02:17:43.735Z,12.61
2024-03-13T02:21:48.433Z,12.56
2024-03-13T02:25:54.021Z,12.60
2024-03-13T02:29:55.574Z,12.24
2024-03-13T02:33:57.321Z,12.54
2024-03-13T02:37:58.774Z,12.47
2024-03-13T02:42:00.257Z,12.21
2024-03-13T02:46:03.299Z,12.41
2024-03-13T02:50:04.947Z,12.34
2024-03-13T02:54:07.008Z,12.04
2024-03-13T02:58:08.593Z,12.07
2024-03-13T03:02:10.737Z,11.93
2024-03-13T03:06:12.389Z,12.05
2024-03-13T03:10:14.211Z,12.04
2024-03-13T03:14:15.718Z,12.24
2024-03-13T03:18:19.178Z,11.93
2024-03-13T03:22:21.020Z,12.22
2024-03-13T03:26:22.593Z,11.85
2024-03-13T03:30:26.914Z,12.18
2024-03-13T03:34:28.431Z,11.78
2024-03-13T03:38:30.175Z,11.77
2024-03-13T03:42:31.636Z,12.05
2024-03-13T03:46:33.284Z,11.83
2024-03-13T03:50:34.853Z,12.04
2024-03-13T03:54:36.420Z,11.89
2024-03-13T03:58:37.945Z,11.66
2024-03-13T04:02:43.110Z,11.68
2024-03-13T04:06:44.998Z,11.78
2024-03-13T04:10:46.537Z,11.63
2024-03-13T04:14:48.068Z,11.93
2024-03-13T04:18:49.612Z,11.95
2024-03-13T04:22:51.681Z,11.89
2024-03-13T04:26:53.219Z,11.52
2024-03-13T04:30:55.120Z,11.75
2024-03-13T04:34:59.099Z,11.86
2024-03-13T04:39:01.100Z,11.94
2024-03-13T04:43:02.712Z,11.54
2024-03-13T04:47:04.317Z,11.85
2024-03-13T04:51:06.610Z,11.51
2024-03-13T04:55:08.344Z,11.73
2024-03-13T04:59:09.870Z,11.86
2024-03-13T05:03:11.795Z,11.45
2024-03-13T05:07:13.924Z,11.81
2024-03-13T05:11:15.883Z,11.78
2024-03-13T05:15:18.258Z,11.70
2024-03-13T05:19:20.506Z,11.75
2024-03-13T05:23:22.197Z,11.67
2024-03-13T05:27:24.034Z,11.39
2024-03-13T05:31:25.686Z,11.61
2024-03-13T05:35:27.442Z,11.62
2024-03-13T05:39:28.981Z,11.44
2024-03-13T05:43:30.480Z,11.59
2024-03-13T05:47:33.107Z,11.28
2024-03-13T05:51:36.422Z,11.28
2024-03-13T05:55:38.088Z,11.53
2024-03-13T05:59:39.581Z,11.35
2024-03-13T06:03:41.462Z,11.33
2024-03-13T06:07:43.082Z,11.56
2024-03-13T06:11:44.766Z,11.29
2024-03-13T06:15:46.435Z,11.62
2024-03-13T06:19:48.063Z,11.29
2024-03-13T06:23:49.787Z,11.27
2024-03-13T06:27:57.898Z,11.17
2024-03-13T06:32:01.980Z,11.13
2024-03-13T06:36:03.866Z,11.12
2024-03-13T06:40:05.881Z,11.24
2024-03-13T06:44:07.502Z,11.44
2024-03-13T06:48:09.374Z,11.41
2024-03-13T06:52:13.860Z,11.49
2024-03-13T06:56:16.158Z,11.05
2024-03-13T07:00:17.985Z,11.44
2024-03-13T07:04:19.977Z,11.48
2024-03-13T07:08:21.569Z,11.42
2024-03-13T07:12:24.427Z,11.47
2024-03-13T07:16:25.933Z,11.14
2024-03-13T07:20:27.611Z,11.48
2024-03-13T07:24:29.181Z,11.47
2024-03-13T07:28:33.842Z,11.35
2024-03-13T07:32:35.970Z,11.32
2024-03-13T07:36:38.941Z,11.48
2024-03-13T07:40:43.527Z,11.49
2024-03-13T07:44:46.757Z,11.21
2024-03-13T07:48:48.240Z,11.31
2024-03-13T07:52:50.353Z,11.16
2024-03-13T07:56:53.428Z,11.14
2024-03-13T08:00:54.927Z,11.13
2024-03-13T08:04:56.461Z,11.23
2024-03-13T09:09:39.436Z,11.88
2024-03-13T09:13:41.490Z,11.95
2024-03-13T09:17:43.427Z,11.60
2024-03-13T09:21:49.024Z,11.89
2024-03-13T09:25:50.544Z,11.98
2024-03-13T09:29:55.438Z,11.65
2024-03-13T09:33:57.119Z,12.03
2024-03-13T09:37:58.649Z,12.09
2024-03-13T09:42:00.586Z,12.08
2024-03-13T09:46:03.557Z,12.07
2024-03-13T09:50:08.123Z,11.85
2024-03-13T09:54:13.000Z,12.00
2024-03-13T09:58:16.520Z,11.92
2024-03-13T10:02:22.565Z,12.22
2024-03-13T10:06:27.133Z,12.33
2024-03-13T10:10:30.885Z,12.23
2024-03-13T10:14:33.153Z,12.16
2024-03-13T10:18:40.680Z,12.13
2024-03-13T10:22:42.196Z,12.49
2024-03-13T10:26:47.623Z,12.16
2024-03-13T10:30:49.198Z,12.28
2024-03-13T10:34:51.133Z,12.54
2024-03-13T10:38:54.408Z,12.56
2024-03-13T10:42:56.081Z,12.61
2024-03-13T10:47:00.282Z,12.65
2024-03-13T10:51:04.670Z,12.42
2024-03-13T10:55:09.632Z,12.57
2024-03-13T10:59:12.939Z,12.67
2024-03-13T11:03:14.593Z,12.75
2024-03-13T11:07:19.996Z,12.42
2024-03-13T11:11:23.631Z,12.64
2024-03-13T11:15:30.413Z,12.77
2024-03-13T11:19:34.505Z,12.78
2024-03-13T11:23:42.224Z,12.44
2024-03-13T11:27:49.819Z,12.89
2024-03-13T11:31:53.715Z,12.61
2024-03-13T11:35:56.490Z,12.53
2024-03-13T11:39:58.541Z,12.68
2024-03-13T11:44:00.154Z,12.91
2024-03-13T11:48:02.246Z,12.48
2024-03-13T11:52:04.263Z,13.00
2024-03-13T11:56:06.339Z,12.87
2024-03-13T12:00:22.018Z,12.72
2024-03-13T12:04:23.629Z,12.98
2024-03-13T12:08:25.143Z,12.80
2024-03-13T12:12:27.922Z,13.06
2024-03-13T12:16:29.467Z,13.06
2024-03-13T12:20:36.522Z,13.10
2024-03-13T12:24:38.479Z,13.12
2024-03-13T12:28:40.384Z,12.85
2024-03-13T12:32:41.954Z,13.19
2024-03-13T12:36:48.172Z,13.01
2024-03-13T12:40:49.628Z,13.22
2024-03-13T12:44:51.145Z,12.90
2024-03-13T12:48:52.735Z,13.28
2024-03-13T12:52:54.609Z,13.06
2024-03-13T12:56:56.569Z,12.99
2024-03-13T13:01:03.399Z,13.31
2024-03-13T13:05:06.858Z,13.07
2024-03-13T13:09:13.951Z,13.00
2024-03-13T13:13:15.492Z,13.01
2024-03-13T13:17:16.975Z,13.40
2024-03-13T13:21:18.439Z,13.44
2024-03-13T13:25:22.161Z,13.11
2024-03-13T13:29:24.511Z,13.10
2024-03-13T13:33:26.602Z,13.21
2024-03-13T13:37:28.553Z,13.12
2024-03-13T13:41:30.884Z,13.52
2024-03-13T13:45:33.219Z,13.53
2024-03-13T13:49:41.445Z,13.25
2024-03-13T13:53:43.020Z,13.59
2024-03-13T13:57:50.999Z,13.22
2024-03-13T14:01:56.479Z,13.67
2024-03-13T14:05:58.195Z,13.63
2024-03-13T14:10:00.187Z,13.67
2024-03-13T14:14:02.948Z,13.66
2024-03-13T14:18:11.202Z,13.73
2024-03-13T14:22:13.219Z,13.44
2024-03-13T14:26:15.012Z,13.44
2024-03-13T14:30:18.600Z,13.84
2024-03-13T14:34:21.672Z,13.83
2024-03-13T14:38:23.183Z,13.59
2024-03-13T14:46:33.494Z,13.57
2024-03-13T14:50:35.290Z,13.85
2024-03-13T14:54:36.800Z,13.50
2024-03-13T14:58:39.708Z,13.56
2024-03-13T15:02:42.286Z,13.87
2024-03-13T15:06:43.851Z,13.53
2024-03-13T15:10:45.475Z,13.32
2024-03-13T15:14:47.065Z,13.31
2024-03-13T15:18:49.253Z,13.61
2024-03-13T15:22:50.828Z,13.93
2024-03-13T15:26:52.653Z,13.95
2024-03-13T15:30:56.832Z,13.56
2024-03-13T15:34:58.693Z,13.39
2024-03-13T15:39:00.219Z,13.71
2024-03-13T15:43:03.968Z,13.65
2024-03-13T15:47:06.366Z,13.69
2024-03-13T15:51:08.057Z,14.00
2024-03-13T15:55:09.680Z,14.07
2024-03-13T15:59:13.882Z,13.75
2024-03-13T16:03:15.439Z,13.80
2024-03-13T16:07:17.290Z,13.76
2024-03-13T16:11:18.994Z,13.95
2024-03-13T16:15:20.860Z,14.09
2024-03-13T16:19:22.577Z,14.20
2024-03-13T16:23:24.426Z,13.85
2024-03-13T16:27:26.055Z,13.88
2024-03-13T16:31:27.720Z,14.21
2024-03-13T16:35:29.411Z,14.29
2024-03-13T16:39:31.083Z,13.99
2024-03-13T16:43:33.396Z,14.18
2024-03-13T16:47:35.549Z,14.20
2024-03-13T16:51:37.518Z,14.20
2024-03-13T16:55:39.038Z,14.01
2024-03-13T16:59:40.563Z,14.31
2024-03-13T17:03:43.503Z,13.99
2024-03-13T17:07:45.327Z,14.00
2024-03-13T17:11:47.112Z,14.26
2024-03-13T17:15:48.636Z,13.93
2024-03-13T17:19:52.328Z,13.88
2024-03-13T17:23:54.238Z,13.94
2024-03-13T17:27:55.800Z,14.29
2024-03-13T17:31:58.344Z,14.21
2024-03-13T17:35:59.958Z,14.22
2024-03-13T17:40:01.926Z,14.19
2024-03-13T17:44:05.295Z,14.31
2024-03-13T17:48:10.364Z,14.30
2024-03-13T17:52:12.282Z,13.99
2024-03-13T17:56:13.986Z,14.26
2024-03-13T18:00:17.200Z,14.34
2024-03-13T18:04:20.039Z,14.29
2024-03-13T18:08:21.576Z,14.32
2024-03-13T18:12:24.633Z,14.30
2024-03-13T18:16:26.772Z,14.26
2024-03-13T18:20:31.056Z,14.31
2024-03-13T18:24:32.613Z,13.97
2024-03-13T18:28:34.228Z,14.09
2024-03-13T18:32:44.082Z,14.32
2024-03-13T18:36:48.488Z,14.34
2024-03-13T18:40:50.032Z,14.30
2024-03-13T18:44:51.742Z,14.38
2024-03-13T18:48:53.296Z,14.31
2024-03-13T18:52:55.022Z,14.07
2024-03-13T18:56:56.584Z,14.33
2024-03-13T19:00:58.080Z,14.39
2024-03-13T19:05:03.207Z,14.38
2024-03-13T19:09:11.969Z,14.09
2024-03-13T19:13:13.578Z,14.36
2024-03-13T19:17:15.117Z,14.07
2024-03-13T19:21:16.908Z,14.39
2024-03-13T19:25:18.665Z,14.34
2024-03-13T19:29:20.139Z,14.14
2024-03-13T19:33:21.909Z,14.20
2024-03-13T19:37:23.473Z,14.43
2024-03-13T19:41:25.398Z,14.11
2024-03-13T19:45:27.419Z,14.15
2024-03-13T19:49:28.981Z,14.40
2024-03-13T19:53:30.489Z,14.09
2024-03-13T19:57:31.966Z,14.36
2024-03-13T20:01:34.380Z,14.05
2024-03-13T20:05:36.507Z,14.44
2024-03-13T20:09:39.607Z,14.38
2024-03-13T20:13:42.940Z,14.10
2024-03-13T20:17:45.065Z,14.07
2024-03-13T20:21:47.706Z,14.09
2024-03-13T20:25:49.292Z,14.41
2024-03-13T20:29:50.874Z,13.83
2024-03-13T20:33:52.685Z,14.47
2024-03-13T20:37:54.930Z,14.18
2024-03-13T20:41:56.523Z,13.83
2024-03-13T20:45:58.991Z,14.42
2024-03-13T20:50:01.906Z,14.17
2024-03-13T20:54:06.127Z,13.99
2024-03-13T20:58:08.644Z,14.52
2024-03-13T21:02:10.305Z,14.49
2024-03-13T21:06:11.935Z,14.51
2024-03-13T21:10:15.257Z,14.50
2024-03-13T21:14:17.777Z,14.40
2024-03-13T21:18:21.120Z,14.53
2024-03-13T21:22:22.648Z,14.43
2024-03-13T21:26:24.260Z,14.48
2024-03-13T21:30:25.809Z,14.13
2024-03-13T21:34:32.468Z,14.49
2024-03-13T21:38:37.835Z,14.41
2024-03-13T21:42:40.375Z,14.37
2024-03-13T21:46:41.846Z,14.43
2024-03-13T21:50:43.980Z,14.33
2024-03-13T21:54:45.643Z,14.32
2024-03-13T21:58:47.102Z,14.11
2024-03-13T22:02:48.869Z,14.23
2024-03-13T22:06:53.170Z,13.63
2024-03-13T22:10:54.990Z,14.30
2024-03-13T22:14:56.527Z,14.17
2024-03-13T22:19:00.811Z,14.12
2024-03-13T22:23:03.826Z,14.37
2024-03-13T22:27:05.361Z,14.16
2024-03-13T22:31:07.258Z,14.17
2024-03-13T22:35:08.875Z,14.08
2024-03-13T22:39:11.934Z,14.15
2024-03-13T22:43:13.427Z,14.40
2024-03-13T22:47:16.095Z,14.21
2024-03-13T22:51:17.774Z,14.36
2024-03-13T22:55:19.319Z,14.46
2024-03-13T22:59:21.037Z,14.47
2024-03-13T23:03:22.621Z,14.47
2024-03-13T23:07:27.302Z,14.14
2024-03-13T23:11:28.884Z,14.14
2024-03-13T23:15:31.118Z,14.47
2024-03-13T23:19:32.691Z,14.13
2024-03-13T23:23:34.195Z,14.44
2024-03-13T23:27:37.726Z,14.43
2024-03-13T23:31:43.668Z,14.48
2024-03-13T23:35:45.254Z,14.47
2024-03-13T23:39:46.719Z,14.37
2024-03-13T23:43:48.208Z,13.55
2024-03-13T23:47:49.782Z,14.18
2024-03-13T23:51:51.286Z,14.48
2024-03-13T23:55:52.961Z,14.42
2024-03-13T23:59:54.490Z,14.39
